»·PEaware :: JBU727 KORD-KBUF

JBU727 :: KORD-KBUF

FLIGHT INFORMATION

Flight Status: Arrived
Operator:
JetBlue Airways
More flights by this operator :: More flights under this callsign
Pilot: Anonymous 5323 (5323)
Aircraft: BOEING 767-300
(B763)
More flights by this aircraft type
Origin: KORD Chicago-O'Hare Intl
United States
Destination: KBUF Buffalo Niagara Intl
United States
More flights between these airports :: More routes between these airports
Route: DUFEE ELX HAAKK DOXXY COHOW DKK
File this flight plan on PilotEdge
Remarks:
Altitude:
(Current/Filed)
35,000ft
Speed:
(Current/Filed)
480kts
Departed: 10-Mar-16 12:54 PM
Arrived: 10-Mar-16 01:58 PM
Distance/Time
Traveled:
410nm/1:04
Distance/Time
To Go:
Arrived

Flight Plot

Page will automatically refresh every two minutes.


Map Options




Map Legend


Flown Route
Filed Route
Departure Airport
Arrival Airport
Navaid (VOR, NDB)
Fix

Horizontal Profiles

Position Reports

Time Latitude Longitude Heading Altitude Ground
Speed
10-Mar-16 12:22 41.975050 -87.901118 89 678ft 0kts
10-Mar-16 12:23 41.975050 -87.901118 89 678ft 0kts
10-Mar-16 12:24 41.975050 -87.901118 89 678ft 0kts
10-Mar-16 12:25 41.975050 -87.901118 89 678ft 0kts
10-Mar-16 12:26 41.975050 -87.901118 89 678ft 0kts
10-Mar-16 12:27 41.975050 -87.901118 89 678ft 0kts
10-Mar-16 12:28 41.975050 -87.901118 89 677ft 0kts
10-Mar-16 12:29 41.975050 -87.901118 89 677ft 0kts
10-Mar-16 12:30 41.975050 -87.901118 89 677ft 0kts
10-Mar-16 12:31 41.975050 -87.901118 89 677ft 0kts
10-Mar-16 12:32 41.975050 -87.901118 89 677ft 0kts
10-Mar-16 12:33 41.975050 -87.901118 89 677ft 0kts
10-Mar-16 12:34 41.975050 -87.901118 89 677ft 0kts
10-Mar-16 12:35 41.975050 -87.901118 89 677ft 0kts
10-Mar-16 12:36 41.975050 -87.901118 89 677ft 0kts
10-Mar-16 12:37 41.975110 -87.901764 150 677ft 1kts
10-Mar-16 12:38 41.975141 -87.901788 168 677ft 0kts
10-Mar-16 12:39 41.975141 -87.901788 168 677ft 0kts
10-Mar-16 12:40 41.975141 -87.901788 168 677ft 0kts
10-Mar-16 12:41 41.972981 -87.901872 180 677ft 14kts
10-Mar-16 12:42 41.971712 -87.897874 67 677ft 21kts
10-Mar-16 12:43 41.972010 -87.889866 84 677ft 19kts
10-Mar-16 12:44 41.973112 -87.894326 354 677ft 11kts
10-Mar-16 12:45 41.978415 -87.894287 1 677ft 22kts
10-Mar-16 12:46 41.982078 -87.892404 321 677ft 17kts
10-Mar-16 12:47 42.012633 -87.910656 20 2303ft 173kts
10-Mar-16 12:48 42.014302 -87.834839 106 4378ft 263kts
10-Mar-16 12:49 42.009077 -87.736340 80 8172ft 280kts
10-Mar-16 12:50 42.024337 -87.626642 76 10915ft 339kts
10-Mar-16 12:51 42.046127 -87.488088 76 13807ft 401kts
10-Mar-16 12:52 42.065746 -87.363255 77 16540ft 427kts
10-Mar-16 12:53 42.095140 -87.174495 78 19943ft 463kts
10-Mar-16 12:54 42.113110 -87.028653 88 22034ft 487kts
10-Mar-16 12:55 42.120558 -86.842693 89 24231ft 517kts
10-Mar-16 12:56 42.127750 -86.645148 91 26394ft 539kts
10-Mar-16 12:57 42.134474 -86.441294 92 28385ft 560kts
10-Mar-16 12:58 42.141086 -86.228436 94 30273ft 578kts
10-Mar-16 12:59 42.143598 -86.013001 99 32496ft 576kts
10-Mar-16 13:00 42.142273 -85.799183 101 34568ft 573kts
10-Mar-16 13:01 42.140351 -85.585687 100 35113ft 565kts
10-Mar-16 13:02 42.137925 -85.377304 99 35118ft 553kts
10-Mar-16 13:03 42.135143 -85.170644 99 35098ft 553kts
10-Mar-16 13:04 42.131881 -84.965574 98 35093ft 544kts
10-Mar-16 13:05 42.128554 -84.762663 99 35076ft 543kts
10-Mar-16 13:06 42.124455 -84.560428 99 35080ft 543kts
10-Mar-16 13:07 42.125262 -84.357570 95 35083ft 548kts
10-Mar-16 13:08 42.130042 -84.152829 95 35075ft 551kts
10-Mar-16 13:09 42.134441 -83.944071 95 35072ft 562kts
10-Mar-16 13:10 42.139104 -83.731781 95 35053ft 579kts
10-Mar-16 13:11 42.142957 -83.516145 95 35056ft 579kts
10-Mar-16 13:12 42.146324 -83.299846 95 35056ft 577kts
10-Mar-16 13:13 42.149237 -83.086875 94 35056ft 564kts
10-Mar-16 13:14 42.151726 -82.878569 95 35050ft 560kts
10-Mar-16 13:15 42.154424 -82.669135 95 35044ft 554kts
10-Mar-16 13:16 42.156142 -82.463225 94 35042ft 548kts
10-Mar-16 13:17 42.157398 -82.270523 95 35040ft 548kts
10-Mar-16 13:18 42.158373 -82.065955 95 35045ft 547kts
10-Mar-16 13:19 42.159106 -81.861132 95 35033ft 547kts
10-Mar-16 13:20 42.159858 -81.657369 95 35035ft 546kts
10-Mar-16 13:21 42.159767 -81.452474 95 35039ft 546kts
10-Mar-16 13:22 42.159292 -81.248393 95 35042ft 546kts
10-Mar-16 13:23 42.158448 -81.043259 95 35045ft 547kts
10-Mar-16 13:24 42.157587 -80.842036 96 35000ft 521kts
10-Mar-16 13:25 42.167661 -80.645860 76 35028ft 539kts
10-Mar-16 13:26 42.214904 -80.452512 72 33917ft 550kts
10-Mar-16 13:27 42.261822 -80.255994 72 31662ft 551kts
10-Mar-16 13:28 42.308108 -80.060151 72 29279ft 547kts
10-Mar-16 13:29 42.353674 -79.866089 73 26892ft 539kts
10-Mar-16 13:30 42.398224 -79.676577 73 24424ft 526kts
10-Mar-16 13:31 42.442159 -79.491859 73 21961ft 510kts
10-Mar-16 13:32 42.487209 -79.313174 62 19495ft 495kts
10-Mar-16 13:33 42.555980 -79.204376 36 17556ft 475kts
10-Mar-16 13:34 42.624214 -79.122182 39 15432ft 422kts
10-Mar-16 13:35 42.709839 -79.014971 40 13148ft 419kts
10-Mar-16 13:36 42.789905 -78.913898 40 10402ft 339kts
10-Mar-16 13:37 42.851922 -78.836172 40 8508ft 298kts
10-Mar-16 13:38 42.911512 -78.760650 41 7229ft 291kts
10-Mar-16 13:39 42.968986 -78.687489 42 5803ft 277kts
10-Mar-16 13:40 43.024348 -78.616823 43 4504ft 269kts
10-Mar-16 13:41 43.077816 -78.548401 42 4003ft 265kts
10-Mar-16 13:42 43.137606 -78.521011 356 4056ft 205kts
10-Mar-16 13:43 43.190250 -78.509769 45 3991ft 201kts
10-Mar-16 13:44 43.175341 -78.457337 189 4006ft 182kts
10-Mar-16 13:45 43.132299 -78.490799 213 3997ft 181kts
10-Mar-16 13:46 43.092562 -78.532543 221 3999ft 180kts
10-Mar-16 13:47 43.055746 -78.578372 223 3636ft 181kts
10-Mar-16 13:48 43.019939 -78.625099 223 2716ft 167kts
10-Mar-16 13:49 42.990418 -78.663915 223 1869ft 141kts
10-Mar-16 13:50 42.962382 -78.700542 223 1166ft 137kts
10-Mar-16 13:51 42.940010 -78.730060 223 735ft 34kts
10-Mar-16 13:52 42.935570 -78.731825 135 735ft 0kts

Navigation Log

Ident Type
Flight plan parsing failed, navigation log unavailable